Time;durP1;ratioP1;P1;durP2;ratioP2;P2;SDS_P1;SDS_P2;PMS_P1;PMS_P2;Temp;Humidity;BMP_temperature;BMP_pressure;BME280_temperature;BME280_humidity;BME280_pressure;Samples;Min_cycle;Max_cycle;Signal;HPM_P1;HPM_P2
2021/03/30 00:00:42;;;;;;;;;;;19.70;53.40;;;;;;5011140;28;19914;-65
2021/03/30 00:03:08;;;;;;;;;;;19.70;53.40;;;;;;4995608;28;20591;-66
2021/03/30 00:05:33;;;;;;;;;;;19.60;53.40;;;;;;5001908;28;19925;-65
2021/03/30 00:07:59;;;;;;;;;;;19.60;53.30;;;;;;4997241;28;19917;-66
2021/03/30 00:10:26;;;;;;;;;;;19.60;53.30;;;;;;4998510;28;20585;-66
2021/03/30 00:12:52;;;;;;;;;;;19.60;53.30;;;;;;5013881;28;20396;-65
2021/03/30 00:15:17;;;;;;;;;;;19.60;53.30;;;;;;5015261;28;19967;-66
2021/03/30 00:17:42;;;;;;;;;;;19.60;53.30;;;;;;5015327;28;20299;-65
2021/03/30 00:20:11;;;;;;;;;;;19.60;53.20;;;;;;5012262;28;19925;-66
2021/03/30 00:22:37;;;;;;;;;;;19.60;53.20;;;;;;5011959;28;19940;-66
2021/03/30 00:25:04;;;;;;;;;;;19.60;53.20;;;;;;5017559;28;19913;-66
2021/03/30 00:27:29;;;;;;;;;;;19.60;53.10;;;;;;5016315;28;20551;-66
2021/03/30 00:29:54;;;;;;;;;;;19.60;53.10;;;;;;5015868;28;19920;-66
2021/03/30 00:32:20;;;;;;;;;;;19.60;53.20;;;;;;5024942;28;20348;-66
2021/03/30 00:34:45;;;;;;;;;;;19.60;53.10;;;;;;5018226;28;19917;-65
2021/03/30 00:37:11;;;;;;;;;;;19.60;53.10;;;;;;5017446;28;19964;-66
2021/03/30 00:39:36;;;;;;;;;;;19.60;53.10;;;;;;5016122;28;20296;-66
2021/03/30 00:42:02;;;;;;;;;;;19.60;53.00;;;;;;5015770;28;20215;-66
2021/03/30 00:44:27;;;;;;;;;;;19.70;53.00;;;;;;5016696;28;19913;-65
2021/03/30 00:46:53;;;;;;;;;;;19.60;52.90;;;;;;5016332;28;19968;-64
2021/03/30 00:49:19;;;;;;;;;;;19.60;52.90;;;;;;5016203;28;19920;-65
2021/03/30 00:51:45;;;;;;;;;;;19.60;52.90;;;;;;5022689;28;19972;-66
2021/03/30 00:54:11;;;;;;;;;;;19.60;52.90;;;;;;5016655;28;19920;-65
2021/03/30 00:56:36;;;;;;;;;;;19.60;52.90;;;;;;5019168;28;19917;-66
2021/03/30 00:59:02;;;;;;;;;;;19.60;52.80;;;;;;5016687;28;19921;-67
2021/03/30 01:01:27;;;;;;;;;;;19.60;52.90;;;;;;5015823;28;20176;-66
2021/03/30 01:03:53;;;;;;;;;;;19.60;52.90;;;;;;5015258;28;20594;-66
2021/03/30 01:06:18;;;;;;;;;;;19.60;52.80;;;;;;5018658;28;19963;-65
2021/03/30 01:08:50;;;;;;;;;;;19.60;52.80;;;;;;5025419;28;21259;-65
2021/03/30 01:11:15;;;;;;;;;;;19.60;52.80;;;;;;5018321;28;19913;-66
2021/03/30 01:13:52;;;;;;;;;;;19.60;52.80;;;;;;5017524;28;19942;-65
2021/03/30 01:16:20;;;;;;;;;;;19.60;52.80;;;;;;5006003;28;20280;-66
2021/03/30 01:18:48;;;;;;;;;;;19.60;52.70;;;;;;5003525;28;19971;-66
2021/03/30 01:21:29;;;;;;;;;;;19.60;52.70;;;;;;5017294;28;20391;-66
2021/03/30 01:23:57;;;;;;;;;;;19.60;52.70;;;;;;5018752;28;19917;-67
2021/03/30 01:26:25;;;;;;;;;;;19.60;52.70;;;;;;5017526;28;20075;-67
2021/03/30 01:28:54;;;;;;;;;;;19.60;52.60;;;;;;5017267;28;19917;-66
2021/03/30 01:31:20;;;;;;;;;;;19.60;52.60;;;;;;5022471;28;19913;-66
2021/03/30 01:33:45;;;;;;;;;;;19.60;52.60;;;;;;4997302;28;19972;-65
2021/03/30 01:36:11;;;;;;;;;;;19.60;52.60;;;;;;4995113;28;19913;-64
2021/03/30 01:38:36;;;;;;;;;;;19.60;52.60;;;;;;4978266;28;19918;-65
2021/03/30 01:41:01;;;;;;;;;;;19.60;52.60;;;;;;4995323;28;19980;-65
2021/03/30 01:43:27;;;;;;;;;;;19.60;52.50;;;;;;5005456;28;19928;-65
2021/03/30 01:45:53;;;;;;;;;;;19.50;52.50;;;;;;5020302;28;19967;-66
2021/03/30 01:48:19;;;;;;;;;;;19.50;52.50;;;;;;5018282;28;19924;-67
2021/03/30 01:50:44;;;;;;;;;;;19.50;52.50;;;;;;5021205;28;20302;-65
2021/03/30 01:53:10;;;;;;;;;;;19.50;52.50;;;;;;4998167;28;20351;-65
2021/03/30 01:55:35;;;;;;;;;;;19.50;52.40;;;;;;5009065;28;20466;-66
2021/03/30 01:58:01;;;;;;;;;;;19.50;52.40;;;;;;5007731;28;20188;-66
2021/03/30 02:00:27;;;;;;;;;;;19.50;52.40;;;;;;5010631;28;19943;-64
2021/03/30 02:02:53;;;;;;;;;;;19.50;52.40;;;;;;5014801;28;19923;-65
2021/03/30 02:05:19;;;;;;;;;;;19.50;52.40;;;;;;5021307;28;20524;-66
2021/03/30 02:07:45;;;;;;;;;;;19.50;52.40;;;;;;5020533;28;19914;-64
2021/03/30 02:10:13;;;;;;;;;;;19.50;52.30;;;;;;5000999;28;19924;-67
2021/03/30 02:12:42;;;;;;;;;;;19.50;52.30;;;;;;5004958;28;19925;-67
2021/03/30 02:15:11;;;;;;;;;;;19.50;52.30;;;;;;5014025;28;19921;-65
2021/03/30 02:17:55;;;;;;;;;;;19.50;52.30;;;;;;5013779;28;19917;-65
2021/03/30 02:20:24;;;;;;;;;;;19.50;52.30;;;;;;5005353;28;19917;-65
2021/03/30 02:23:03;;;;;;;;;;;19.50;52.30;;;;;;5013184;28;19921;-65
2021/03/30 02:25:29;;;;;;;;;;;19.50;52.20;;;;;;5012703;28;19921;-65
2021/03/30 02:27:55;;;;;;;;;;;19.50;52.20;;;;;;5015431;28;19913;-65
2021/03/30 02:30:22;;;;;;;;;;;19.50;52.20;;;;;;5016686;28;19917;-65
2021/03/30 02:32:47;;;;;;;;;;;19.50;52.20;;;;;;5020805;28;20008;-65
2021/03/30 02:35:13;;;;;;;;;;;19.50;52.20;;;;;;5010190;28;20441;-66
2021/03/30 02:37:39;;;;;;;;;;;19.50;52.20;;;;;;4995375;28;19918;-66
2021/03/30 02:40:05;;;;;;;;;;;19.50;52.20;;;;;;5002817;28;19913;-65
2021/03/30 02:42:30;;;;;;;;;;;19.50;52.20;;;;;;5007912;28;20051;-64
2021/03/30 02:44:56;;;;;;;;;;;19.50;52.10;;;;;;5014034;28;19913;-64
2021/03/30 02:47:21;;;;;;;;;;;19.50;52.10;;;;;;5022788;28;19921;-65
2021/03/30 02:49:47;;;;;;;;;;;19.50;52.20;;;;;;5015343;28;20335;-66
2021/03/30 02:52:13;;;;;;;;;;;19.50;52.10;;;;;;5014744;28;19933;-66
2021/03/30 02:54:38;;;;;;;;;;;19.50;52.10;;;;;;5016338;28;20419;-66
2021/03/30 02:57:04;;;;;;;;;;;19.50;52.10;;;;;;5014218;28;19923;-66
2021/03/30 02:59:29;;;;;;;;;;;19.50;52.10;;;;;;5020255;28;20449;-64
2021/03/30 03:01:55;;;;;;;;;;;19.50;52.10;;;;;;5013612;28;19919;-67
2021/03/30 03:04:20;;;;;;;;;;;19.50;52.10;;;;;;5003568;28;19921;-67
2021/03/30 03:06:46;;;;;;;;;;;19.40;52.00;;;;;;4995969;28;19917;-64
2021/03/30 03:09:12;;;;;;;;;;;19.50;52.10;;;;;;4984969;28;20404;-66
2021/03/30 03:11:40;;;;;;;;;;;19.50;52.00;;;;;;4992104;28;19922;-67
2021/03/30 03:14:06;;;;;;;;;;;19.40;52.00;;;;;;4992692;28;19920;-65
2021/03/30 03:16:31;;;;;;;;;;;19.40;52.00;;;;;;5002209;28;20327;-66
2021/03/30 03:18:57;;;;;;;;;;;19.40;52.00;;;;;;5020945;28;20295;-66
2021/03/30 03:21:24;;;;;;;;;;;19.40;52.00;;;;;;5029211;28;19935;-64
2021/03/30 03:23:49;;;;;;;;;;;19.40;52.00;;;;;;5018872;28;19913;-64
2021/03/30 03:26:15;;;;;;;;;;;19.40;51.90;;;;;;5013785;28;20027;-66
2021/03/30 03:28:40;;;;;;;;;;;19.40;51.90;;;;;;5003018;28;19921;-65
2021/03/30 03:31:06;;;;;;;;;;;19.40;51.90;;;;;;5013010;28;20378;-65
2021/03/30 03:33:31;;;;;;;;;;;19.40;51.90;;;;;;5015270;28;19921;-66
2021/03/30 03:36:01;;;;;;;;;;;19.40;51.90;;;;;;5014325;28;19913;-65
2021/03/30 03:38:26;;;;;;;;;;;19.40;51.90;;;;;;4992377;28;19921;-66
2021/03/30 03:40:52;;;;;;;;;;;19.40;52.00;;;;;;4993182;28;19914;-66
2021/03/30 03:43:17;;;;;;;;;;;19.40;51.90;;;;;;4999941;28;20367;-65
2021/03/30 03:45:43;;;;;;;;;;;19.40;51.90;;;;;;5009905;28;20443;-65
2021/03/30 03:48:08;;;;;;;;;;;19.40;51.90;;;;;;5014716;28;19917;-66
2021/03/30 03:50:33;;;;;;;;;;;19.40;51.90;;;;;;5012907;28;19914;-65
2021/03/30 03:52:59;;;;;;;;;;;19.40;51.90;;;;;;5015295;28;19917;-66
2021/03/30 03:55:24;;;;;;;;;;;19.40;51.90;;;;;;5015882;28;19935;-66
2021/03/30 03:57:51;;;;;;;;;;;19.40;51.90;;;;;;5010926;28;19913;-66
2021/03/30 04:00:18;;;;;;;;;;;19.40;51.90;;;;;;5018541;28;20008;-65
2021/03/30 04:03:03;;;;;;;;;;;19.40;51.90;;;;;;5002085;28;19926;-65
2021/03/30 04:05:35;;;;;;;;;;;19.40;51.90;;;;;;4995778;28;19920;-66
2021/03/30 04:08:03;;;;;;;;;;;19.40;51.90;;;;;;5009800;28;19917;-64
2021/03/30 04:10:29;;;;;;;;;;;19.30;51.80;;;;;;4987071;28;19920;-63
2021/03/30 04:12:54;;;;;;;;;;;19.30;51.80;;;;;;4992472;28;20316;-64
2021/03/30 04:15:24;;;;;;;;;;;19.40;51.80;;;;;;4993577;28;19914;-66
2021/03/30 04:17:50;;;;;;;;;;;19.40;51.80;;;;;;5002689;28;20335;-65
2021/03/30 04:20:15;;;;;;;;;;;19.30;51.80;;;;;;5010773;28;20012;-65
2021/03/30 04:22:42;;;;;;;;;;;19.30;51.80;;;;;;5012164;28;19929;-65
2021/03/30 04:25:08;;;;;;;;;;;19.30;51.70;;;;;;5012411;28;20005;-66
2021/03/30 04:27:33;;;;;;;;;;;19.30;51.70;;;;;;5012044;28;20008;-66
2021/03/30 04:29:59;;;;;;;;;;;19.30;51.70;;;;;;5013248;28;20398;-66
2021/03/30 04:32:24;;;;;;;;;;;19.30;51.70;;;;;;5014979;28;19917;-66
2021/03/30 04:34:50;;;;;;;;;;;19.30;51.70;;;;;;5015570;28;19913;-66
2021/03/30 04:37:15;;;;;;;;;;;19.30;51.70;;;;;;5011700;28;20152;-66
2021/03/30 04:39:41;;;;;;;;;;;19.30;51.60;;;;;;5005424;28;20449;-65
2021/03/30 04:42:06;;;;;;;;;;;19.30;51.70;;;;;;5012679;28;19913;-64
2021/03/30 04:44:32;;;;;;;;;;;19.30;51.70;;;;;;5015456;28;20015;-67
2021/03/30 04:46:57;;;;;;;;;;;19.30;51.70;;;;;;5015153;28;20335;-66
2021/03/30 04:49:23;;;;;;;;;;;19.30;51.60;;;;;;5014131;28;20003;-67
2021/03/30 04:51:48;;;;;;;;;;;19.30;51.60;;;;;;5011003;28;20753;-65
2021/03/30 04:54:14;;;;;;;;;;;19.40;51.70;;;;;;5012503;28;19921;-65
2021/03/30 04:56:39;;;;;;;;;;;19.30;51.60;;;;;;5014299;28;20282;-66
2021/03/30 04:59:04;;;;;;;;;;;19.30;51.50;;;;;;4990860;28;19914;-65
2021/03/30 05:01:30;;;;;;;;;;;19.30;51.50;;;;;;4992607;28;19913;-65
2021/03/30 05:03:55;;;;;;;;;;;19.30;51.40;;;;;;5000288;28;19917;-64
2021/03/30 05:06:21;;;;;;;;;;;19.30;51.50;;;;;;4998098;28;19913;-65
2021/03/30 05:08:46;;;;;;;;;;;19.30;51.40;;;;;;4992162;28;19924;-65
2021/03/30 05:11:12;;;;;;;;;;;19.30;51.40;;;;;;4994582;28;19917;-67
2021/03/30 05:13:37;;;;;;;;;;;19.30;51.40;;;;;;5001252;28;20378;-63
2021/03/30 05:16:03;;;;;;;;;;;19.30;52.00;;;;;;4997637;28;19936;-67
2021/03/30 05:18:28;;;;;;;;;;;19.30;52.20;;;;;;4995311;28;20009;-64
2021/03/30 05:20:54;;;;;;;;;;;19.30;52.10;;;;;;4994285;28;19914;-67
2021/03/30 05:23:19;;;;;;;;;;;19.30;52.60;;;;;;4996847;28;19914;-68
2021/03/30 05:25:45;;;;;;;;;;;19.30;51.90;;;;;;5001502;28;19913;-67
2021/03/30 05:28:10;;;;;;;;;;;19.30;51.70;;;;;;4997670;28;19932;-64
2021/03/30 05:30:35;;;;;;;;;;;19.30;51.70;;;;;;5017167;28;20523;-67
2021/03/30 05:33:01;;;;;;;;;;;19.30;51.60;;;;;;5018198;28;19928;-67
2021/03/30 05:35:26;;;;;;;;;;;19.30;51.50;;;;;;5013820;28;19913;-67
2021/03/30 05:37:52;;;;;;;;;;;19.30;51.50;;;;;;5014022;28;19913;-66
2021/03/30 05:40:18;;;;;;;;;;;19.30;51.40;;;;;;5016257;28;20457;-66
2021/03/30 05:42:45;;;;;;;;;;;19.30;51.40;;;;;;5013937;28;19914;-64
2021/03/30 05:45:12;;;;;;;;;;;19.20;52.60;;;;;;5014919;28;19917;-63
2021/03/30 05:47:37;;;;;;;;;;;19.30;53.00;;;;;;5016939;28;19917;-64
2021/03/30 05:50:12;;;;;;;;;;;19.30;53.00;;;;;;5015294;28;19924;-65
2021/03/30 05:52:44;;;;;;;;;;;19.30;53.10;;;;;;5001323;28;19971;-65
2021/03/30 05:55:39;;;;;;;;;;;19.30;53.10;;;;;;5013396;28;19913;-65
2021/03/30 05:58:05;;;;;;;;;;;19.30;53.30;;;;;;4992311;28;19920;-65
2021/03/30 06:00:33;;;;;;;;;;;19.20;53.30;;;;;;5013477;28;19913;-66
2021/03/30 06:03:34;;;;;;;;;;;19.30;53.40;;;;;;4997511;28;20609;-66
2021/03/30 06:06:00;;;;;;;;;;;19.30;53.50;;;;;;4903102;29;19915;-65
2021/03/30 06:08:26;;;;;;;;;;;19.30;53.80;;;;;;4981893;28;19929;-66
2021/03/30 06:10:54;;;;;;;;;;;19.30;53.90;;;;;;4996749;28;19921;-64
2021/03/30 06:13:42;;;;;;;;;;;19.30;54.20;;;;;;4997626;28;19975;-65
2021/03/30 06:16:21;;;;;;;;;;;19.30;54.30;;;;;;5008335;28;19917;-65
2021/03/30 06:18:46;;;;;;;;;;;19.30;54.40;;;;;;5017079;28;20383;-65
2021/03/30 06:21:15;;;;;;;;;;;19.30;54.40;;;;;;5005468;28;19924;-64
2021/03/30 06:23:40;;;;;;;;;;;19.30;54.40;;;;;;5004682;28;19920;-66
2021/03/30 06:26:14;;;;;;;;;;;19.30;54.40;;;;;;5000151;28;19917;-64
2021/03/30 06:28:40;;;;;;;;;;;19.40;54.30;;;;;;4991341;28;20481;-65
2021/03/30 06:31:07;;;;;;;;;;;19.40;54.20;;;;;;4998217;28;19913;-66
2021/03/30 06:33:50;;;;;;;;;;;19.40;54.30;;;;;;5007107;28;19935;-66
2021/03/30 06:36:15;;;;;;;;;;;19.40;54.30;;;;;;5016375;28;19922;-65
2021/03/30 06:38:50;;;;;;;;;;;19.40;54.30;;;;;;5019767;28;19923;-66
2021/03/30 06:41:29;;;;;;;;;;;19.40;54.20;;;;;;5018424;28;19917;-65
2021/03/30 06:46:43;;;;;;;;;;;19.50;53.90;;;;;;5006131;28;19974;-65
2021/03/30 06:49:14;;;;;;;;;;;19.50;53.80;;;;;;5014302;28;19917;-65
2021/03/30 06:51:39;;;;;;;;;;;19.40;53.60;;;;;;5012345;28;20038;-65
2021/03/30 06:54:08;;;;;;;;;;;19.50;53.60;;;;;;5015759;28;20165;-66
2021/03/30 06:56:46;;;;;;;;;;;19.50;53.40;;;;;;5014749;28;19963;-65
2021/03/30 06:59:12;;;;;;;;;;;19.50;53.10;;;;;;5014291;28;19952;-65
2021/03/30 07:01:37;;;;;;;;;;;19.50;52.50;;;;;;5016831;28;19952;-65
2021/03/30 07:04:03;;;;;;;;;;;19.50;52.10;;;;;;5016556;28;20344;-66
2021/03/30 07:06:28;;;;;;;;;;;19.50;51.50;;;;;;5015924;28;20003;-65
2021/03/30 07:08:54;;;;;;;;;;;19.40;50.80;;;;;;5021925;28;19922;-66
2021/03/30 07:11:19;;;;;;;;;;;19.50;50.40;;;;;;5023046;28;19914;-66
2021/03/30 07:13:45;;;;;;;;;;;19.40;50.00;;;;;;5017223;28;19943;-65
2021/03/30 07:16:20;;;;;;;;;;;19.40;49.70;;;;;;5016619;28;20499;-66
2021/03/30 07:18:47;;;;;;;;;;;19.40;49.40;;;;;;5004334;28;19964;-65
2021/03/30 07:21:12;;;;;;;;;;;19.40;48.90;;;;;;4992733;28;19913;-65
2021/03/30 07:23:38;;;;;;;;;;;19.40;48.50;;;;;;4993864;28;19921;-66
2021/03/30 07:26:05;;;;;;;;;;;19.40;48.40;;;;;;4991962;28;19914;-66
2021/03/30 07:28:40;;;;;;;;;;;19.40;48.70;;;;;;4992049;28;19975;-66
2021/03/30 07:31:06;;;;;;;;;;;19.40;48.30;;;;;;4993443;28;20423;-65
2021/03/30 07:33:41;;;;;;;;;;;19.40;47.70;;;;;;4982686;28;19918;-65
2021/03/30 07:36:07;;;;;;;;;;;19.30;47.80;;;;;;5007212;28;20199;-66
2021/03/30 07:38:35;;;;;;;;;;;19.20;44.80;;;;;;4991349;28;19914;-66
2021/03/30 07:41:00;;;;;;;;;;;19.10;42.30;;;;;;4975296;28;20319;-66
2021/03/30 07:43:26;;;;;;;;;;;19.00;42.20;;;;;;4978040;28;19921;-66
2021/03/30 07:45:52;;;;;;;;;;;19.00;42.60;;;;;;5005347;28;19921;-65
2021/03/30 07:48:18;;;;;;;;;;;18.90;41.20;;;;;;5026618;28;19925;-64
2021/03/30 07:53:40;;;;;;;;;;;19.00;41.30;;;;;;5016343;28;19924;-66
2021/03/30 07:56:06;;;;;;;;;;;18.90;41.70;;;;;;4994028;28;20318;-65
2021/03/30 07:58:36;;;;;;;;;;;18.90;41.60;;;;;;4992886;28;19917;-65
2021/03/30 08:01:01;;;;;;;;;;;18.80;41.80;;;;;;4994057;28;19913;-64
2021/03/30 08:03:28;;;;;;;;;;;18.80;42.40;;;;;;4994566;28;20457;-66
2021/03/30 08:06:12;;;;;;;;;;;18.80;41.60;;;;;;5003280;28;19913;-65
2021/03/30 08:08:54;;;;;;;;;;;18.80;44.70;;;;;;4990451;28;20000;-66
2021/03/30 08:11:44;;;;;;;;;;;18.80;43.10;;;;;;4980684;28;19921;-66
2021/03/30 08:14:10;;;;;;;;;;;18.90;42.80;;;;;;5001463;28;19918;-66
2021/03/30 08:16:36;;;;;;;;;;;19.00;40.40;;;;;;5012241;28;20359;-67
2021/03/30 08:19:05;;;;;;;;;;;18.90;40.60;;;;;;5003086;28;20008;-66
2021/03/30 08:21:49;;;;;;;;;;;18.90;41.60;;;;;;5003987;28;19920;-64
2021/03/30 08:24:14;;;;;;;;;;;18.90;39.80;;;;;;4997910;28;19985;-67
2021/03/30 08:26:40;;;;;;;;;;;18.90;40.10;;;;;;5001857;28;19917;-65
2021/03/30 08:29:13;;;;;;;;;;;18.80;40.70;;;;;;5003309;28;19913;-66
2021/03/30 08:31:39;;;;;;;;;;;18.90;41.30;;;;;;5003582;28;19914;-66
2021/03/30 08:34:14;;;;;;;;;;;18.80;41.30;;;;;;5004016;28;19913;-66
2021/03/30 08:36:45;;;;;;;;;;;18.90;42.00;;;;;;5002217;28;19992;-66
2021/03/30 08:39:11;;;;;;;;;;;18.80;42.30;;;;;;5003355;28;20048;-66
2021/03/30 08:41:42;;;;;;;;;;;18.80;43.00;;;;;;5003569;28;20008;-65
2021/03/30 08:44:27;;;;;;;;;;;18.90;43.10;;;;;;5003036;28;20049;-65
2021/03/30 08:46:56;;;;;;;;;;;18.90;43.10;;;;;;5007185;28;19913;-66
2021/03/30 08:49:25;;;;;;;;;;;18.90;41.90;;;;;;5007245;28;19917;-66
2021/03/30 08:51:58;;;;;;;;;;;19.00;41.80;;;;;;5005976;28;19990;-66
2021/03/30 08:54:24;;;;;;;;;;;18.90;41.20;;;;;;5007116;28;19944;-65
2021/03/30 08:56:50;;;;;;;;;;;19.00;41.50;;;;;;5006968;28;19913;-66
2021/03/30 08:59:18;;;;;;;;;;;19.00;40.90;;;;;;5007505;28;19924;-66
2021/03/30 09:01:43;;;;;;;;;;;19.00;41.30;;;;;;5007219;28;19921;-66
2021/03/30 09:04:10;;;;;;;;;;;19.00;40.60;;;;;;5006442;28;19921;-66
2021/03/30 09:06:41;;;;;;;;;;;19.00;41.10;;;;;;5006738;28;19914;-65
2021/03/30 09:09:20;;;;;;;;;;;19.00;40.70;;;;;;4998276;28;19914;-66
2021/03/30 09:11:45;;;;;;;;;;;19.00;41.30;;;;;;4996406;28;20407;-66
2021/03/30 09:14:12;;;;;;;;;;;19.10;41.60;;;;;;5001739;28;19957;-66
2021/03/30 09:16:38;;;;;;;;;;;19.00;41.80;;;;;;5013856;28;20000;-66
2021/03/30 09:19:11;;;;;;;;;;;19.00;41.90;;;;;;5023105;28;20299;-66
2021/03/30 09:21:36;;;;;;;;;;;19.00;41.80;;;;;;5009132;28;19913;-65
2021/03/30 09:24:07;;;;;;;;;;;18.90;42.40;;;;;;5003643;28;19913;-66
2021/03/30 09:26:37;;;;;;;;;;;18.90;42.50;;;;;;5008710;28;19941;-64
2021/03/30 09:29:02;;;;;;;;;;;19.00;43.00;;;;;;5002586;28;19964;-65
2021/03/30 09:31:28;;;;;;;;;;;18.90;43.30;;;;;;5007018;28;19921;-65
2021/03/30 09:33:55;;;;;;;;;;;19.00;43.60;;;;;;4994664;28;19921;-64
2021/03/30 09:36:20;;;;;;;;;;;19.00;43.90;;;;;;4995084;28;20308;-66
2021/03/30 09:38:49;;;;;;;;;;;19.00;44.10;;;;;;5008177;28;19921;-65
2021/03/30 09:41:14;;;;;;;;;;;19.00;44.30;;;;;;5015226;28;19914;-65
2021/03/30 09:43:40;;;;;;;;;;;19.00;44.50;;;;;;5013522;28;20437;-66
2021/03/30 09:46:05;;;;;;;;;;;19.00;44.70;;;;;;5013852;28;19917;-66
2021/03/30 09:48:31;;;;;;;;;;;19.00;44.90;;;;;;5020077;28;19921;-65
2021/03/30 09:50:56;;;;;;;;;;;19.00;44.90;;;;;;5015196;28;20006;-66
2021/03/30 09:53:22;;;;;;;;;;;19.00;45.00;;;;;;4991521;28;20431;-66
2021/03/30 09:55:47;;;;;;;;;;;19.00;45.20;;;;;;4985372;28;19913;-64
2021/03/30 09:58:15;;;;;;;;;;;19.00;45.30;;;;;;5002059;28;19921;-65
2021/03/30 10:00:50;;;;;;;;;;;19.00;45.40;;;;;;5003807;28;19917;-66
2021/03/30 10:03:17;;;;;;;;;;;19.00;45.60;;;;;;5006842;28;19925;-65
2021/03/30 10:05:43;;;;;;;;;;;19.00;45.70;;;;;;5002587;28;19937;-65
2021/03/30 10:08:20;;;;;;;;;;;19.00;45.70;;;;;;5009315;28;19913;-65
2021/03/30 10:10:46;;;;;;;;;;;19.00;45.60;;;;;;4992412;28;19918;-64
2021/03/30 10:13:28;;;;;;;;;;;19.00;45.70;;;;;;4994860;28;19922;-66
2021/03/30 10:15:54;;;;;;;;;;;19.00;45.70;;;;;;5007569;28;19977;-65
2021/03/30 10:18:22;;;;;;;;;;;19.00;45.70;;;;;;5014740;28;19949;-66
2021/03/30 10:20:51;;;;;;;;;;;19.00;45.70;;;;;;5014306;28;20116;-65
2021/03/30 10:23:22;;;;;;;;;;;19.10;45.70;;;;;;5014419;28;19913;-66
2021/03/30 10:25:48;;;;;;;;;;;19.00;45.70;;;;;;5013154;28;19917;-66
2021/03/30 10:28:23;;;;;;;;;;;19.00;45.70;;;;;;5015691;28;19914;-66
2021/03/30 10:30:52;;;;;;;;;;;19.00;45.80;;;;;;5018357;28;20522;-66
2021/03/30 10:33:33;;;;;;;;;;;19.00;46.00;;;;;;5015900;28;19955;-65
2021/03/30 10:35:59;;;;;;;;;;;19.00;46.20;;;;;;5016564;28;19913;-64
2021/03/30 10:38:24;;;;;;;;;;;19.00;46.30;;;;;;5014361;28;19920;-64
2021/03/30 10:40:50;;;;;;;;;;;19.00;46.40;;;;;;5015377;28;19924;-65
2021/03/30 10:43:22;;;;;;;;;;;19.00;46.50;;;;;;5016404;28;20432;-65
2021/03/30 10:45:48;;;;;;;;;;;19.00;46.50;;;;;;5017412;28;19921;-65
2021/03/30 10:48:13;;;;;;;;;;;19.00;46.40;;;;;;5014344;28;19913;-66
2021/03/30 10:50:39;;;;;;;;;;;19.00;46.50;;;;;;5013788;28;20004;-65
2021/03/30 10:53:06;;;;;;;;;;;19.00;46.50;;;;;;5017059;28;20013;-65
2021/03/30 10:55:31;;;;;;;;;;;19.00;46.50;;;;;;5015453;28;19929;-65
2021/03/30 10:57:57;;;;;;;;;;;19.10;46.50;;;;;;5013510;28;21328;-66
2021/03/30 11:00:22;;;;;;;;;;;19.10;46.50;;;;;;5019866;28;19929;-67
2021/03/30 11:02:48;;;;;;;;;;;19.10;46.50;;;;;;4992396;28;19913;-65
2021/03/30 11:05:15;;;;;;;;;;;19.10;46.50;;;;;;4995078;28;19918;-64
2021/03/30 11:07:40;;;;;;;;;;;19.10;46.60;;;;;;5001986;28;19917;-65
2021/03/30 11:10:09;;;;;;;;;;;19.00;46.40;;;;;;5007855;28;19927;-64
2021/03/30 11:12:35;;;;;;;;;;;19.00;46.30;;;;;;5008955;28;19921;-65
2021/03/30 11:15:01;;;;;;;;;;;19.00;46.30;;;;;;5013179;28;19913;-65
2021/03/30 11:17:26;;;;;;;;;;;19.00;46.40;;;;;;5020424;28;19920;-65
2021/03/30 11:19:51;;;;;;;;;;;19.00;46.40;;;;;;5011992;28;19913;-65
2021/03/30 11:22:17;;;;;;;;;;;19.00;46.50;;;;;;5009372;28;19923;-66
2021/03/30 11:24:43;;;;;;;;;;;19.00;46.60;;;;;;5017932;28;19914;-65
2021/03/30 11:27:09;;;;;;;;;;;19.00;46.70;;;;;;5014087;28;19917;-65
2021/03/30 11:37:17;;;;;;;;;;;19.00;46.90;;;;;;4997864;28;19945;-65
2021/03/30 11:39:42;;;;;;;;;;;19.00;47.10;;;;;;4996188;28;19920;-65
2021/03/30 11:42:08;;;;;;;;;;;19.00;47.10;;;;;;4993758;28;20008;-66
2021/03/30 11:44:33;;;;;;;;;;;19.00;47.20;;;;;;4989540;28;20560;-65
2021/03/30 11:46:59;;;;;;;;;;;19.00;47.20;;;;;;4992186;28;19924;-64
2021/03/30 11:49:25;;;;;;;;;;;19.00;47.20;;;;;;4995470;28;19944;-65
2021/03/30 11:51:51;;;;;;;;;;;19.00;46.80;;;;;;4993729;28;19917;-65
2021/03/30 11:54:16;;;;;;;;;;;19.00;46.80;;;;;;5000998;28;19921;-65
2021/03/30 11:56:42;;;;;;;;;;;19.00;46.80;;;;;;4995989;28;19920;-66
2021/03/30 11:59:07;;;;;;;;;;;19.00;46.80;;;;;;4994700;28;20431;-66
2021/03/30 12:01:32;;;;;;;;;;;19.00;46.90;;;;;;4992528;28;20001;-64
2021/03/30 12:03:58;;;;;;;;;;;19.00;46.90;;;;;;4992655;28;19926;-65
2021/03/30 12:06:23;;;;;;;;;;;19.00;46.90;;;;;;4999939;28;19972;-63
2021/03/30 12:08:49;;;;;;;;;;;19.00;46.90;;;;;;4994780;28;20277;-65
2021/03/30 12:11:14;;;;;;;;;;;19.00;46.90;;;;;;4986534;28;19914;-65
2021/03/30 12:13:40;;;;;;;;;;;19.00;47.00;;;;;;4997141;28;19935;-65
2021/03/30 12:16:05;;;;;;;;;;;19.00;47.30;;;;;;4991893;28;20024;-65
2021/03/30 12:18:31;;;;;;;;;;;19.00;47.30;;;;;;4997162;28;20319;-66
2021/03/30 12:20:56;;;;;;;;;;;19.00;47.40;;;;;;4993111;28;19918;-65
2021/03/30 12:23:22;;;;;;;;;;;19.00;47.40;;;;;;4996565;28;20348;-65
2021/03/30 12:25:48;;;;;;;;;;;19.00;47.40;;;;;;5000304;28;19913;-65
2021/03/30 12:28:13;;;;;;;;;;;19.00;47.50;;;;;;5001946;28;19929;-65
2021/03/30 12:30:39;;;;;;;;;;;19.00;47.50;;;;;;4998151;28;19913;-67
2021/03/30 12:33:04;;;;;;;;;;;19.00;47.90;;;;;;4996511;28;19925;-66
2021/03/30 12:35:30;;;;;;;;;;;19.00;47.70;;;;;;4989840;28;19967;-65
2021/03/30 12:37:55;;;;;;;;;;;19.00;47.90;;;;;;4998203;28;20427;-66
2021/03/30 12:40:21;;;;;;;;;;;19.00;47.90;;;;;;4997942;28;19913;-66
2021/03/30 12:42:48;;;;;;;;;;;19.00;48.00;;;;;;5003838;28;19918;-64
2021/03/30 12:45:13;;;;;;;;;;;19.00;48.00;;;;;;4993324;28;20454;-65
2021/03/30 12:47:39;;;;;;;;;;;19.00;48.10;;;;;;5001803;28;19917;-68
2021/03/30 12:50:04;;;;;;;;;;;19.00;48.20;;;;;;5004333;28;19940;-65
2021/03/30 12:52:30;;;;;;;;;;;19.00;48.10;;;;;;5001242;28;19917;-66
2021/03/30 12:55:03;;;;;;;;;;;19.00;48.10;;;;;;5000978;28;19924;-66
2021/03/30 12:57:29;;;;;;;;;;;19.00;48.20;;;;;;4987214;28;19928;-66
2021/03/30 12:59:54;;;;;;;;;;;19.00;48.10;;;;;;5000388;28;19914;-66
2021/03/30 13:02:20;;;;;;;;;;;19.00;48.20;;;;;;4999923;28;19913;-65
2021/03/30 13:04:45;;;;;;;;;;;19.00;48.20;;;;;;5005383;28;20666;-66
2021/03/30 13:07:11;;;;;;;;;;;19.00;48.20;;;;;;4992279;28;19992;-65
2021/03/30 13:09:36;;;;;;;;;;;19.00;48.20;;;;;;4997829;28;19953;-66
2021/03/30 13:12:02;;;;;;;;;;;19.00;48.20;;;;;;4996806;28;19921;-65
2021/03/30 13:14:27;;;;;;;;;;;19.00;48.30;;;;;;4998146;28;19921;-66
2021/03/30 13:16:53;;;;;;;;;;;19.00;48.30;;;;;;4988932;28;19932;-64
2021/03/30 13:19:18;;;;;;;;;;;19.00;48.20;;;;;;4995126;28;19914;-64
2021/03/30 13:21:44;;;;;;;;;;;19.00;48.20;;;;;;5005836;28;20372;-66
2021/03/30 13:24:12;;;;;;;;;;;19.00;48.20;;;;;;4989778;28;19918;-67
2021/03/30 13:26:37;;;;;;;;;;;19.00;48.30;;;;;;4973429;28;19914;-65
2021/03/30 13:29:03;;;;;;;;;;;19.00;48.30;;;;;;4991189;28;19914;-65
2021/03/30 13:31:28;;;;;;;;;;;19.00;48.50;;;;;;5002155;28;20079;-66
2021/03/30 13:33:54;;;;;;;;;;;19.00;48.40;;;;;;5003668;28;19976;-65
2021/03/30 13:36:19;;;;;;;;;;;19.00;48.40;;;;;;4988798;28;19917;-65
2021/03/30 13:38:45;;;;;;;;;;;19.00;48.40;;;;;;5004878;28;20419;-66
2021/03/30 13:41:13;;;;;;;;;;;19.00;48.30;;;;;;4996813;28;19913;-66
2021/03/30 13:43:38;;;;;;;;;;;19.00;48.50;;;;;;4994996;28;19913;-65
2021/03/30 13:46:03;;;;;;;;;;;19.00;48.40;;;;;;4994000;28;20365;-64
2021/03/30 13:48:29;;;;;;;;;;;19.00;48.40;;;;;;4998173;28;19921;-66
2021/03/30 13:50:54;;;;;;;;;;;19.10;48.40;;;;;;4997928;28;19921;-65
2021/03/30 13:53:20;;;;;;;;;;;19.00;48.30;;;;;;4996522;28;20017;-63
2021/03/30 13:55:45;;;;;;;;;;;19.00;48.30;;;;;;4995537;28;19925;-65
2021/03/30 13:58:11;;;;;;;;;;;19.00;48.40;;;;;;4996453;28;19918;-65
2021/03/30 14:00:36;;;;;;;;;;;19.00;48.30;;;;;;4997634;28;19921;-65
2021/03/30 14:03:01;;;;;;;;;;;19.00;48.40;;;;;;5002208;28;20316;-66
2021/03/30 14:05:27;;;;;;;;;;;19.00;48.30;;;;;;4993356;28;19952;-66
2021/03/30 14:07:52;;;;;;;;;;;19.00;48.30;;;;;;4999737;28;19961;-65
2021/03/30 14:10:20;;;;;;;;;;;19.00;48.40;;;;;;4994259;28;19914;-66
2021/03/30 14:15:21;;;;;;;;;;;19.00;48.00;;;;;;5000668;28;19920;-66
2021/03/30 14:17:49;;;;;;;;;;;19.10;48.30;;;;;;4990264;28;19924;-66
2021/03/30 14:20:15;;;;;;;;;;;19.10;48.30;;;;;;4996260;28;19955;-65
2021/03/30 14:22:42;;;;;;;;;;;19.10;48.30;;;;;;4992111;28;20448;-66
2021/03/30 14:25:26;;;;;;;;;;;19.10;48.10;;;;;;4995770;28;19976;-65
2021/03/30 14:27:52;;;;;;;;;;;19.10;48.90;;;;;;5001423;28;19921;-65
2021/03/30 14:30:18;;;;;;;;;;;19.10;48.20;;;;;;5005037;28;19913;-65
2021/03/30 14:32:44;;;;;;;;;;;19.10;48.10;;;;;;5011502;28;19917;-66